PWSweather.com
Personal Weather Stations
Station Observations
NYERIN
South Erin, Erin, NY 14838-9545

South ErinErin, NY 14838-9545

Lat: 42.150605, Lon: -76.654038

Elevation: 1663

Station Type: Davis VP Pro II

http://southerin-ny.org/wx.php

Latest ConditionsUpdated 12:52:00 PM EDT Wednesday, Sep 28, 2016
Currently Today's Max Today's Min Today's Average
Temperature 69.8°F21.0°C 69.8°F21.0°C 46.1°F7.8°C 52.9°F11.6°C
Dew Point 48.7°F9.3°C 51.5°F10.8°C 39.8°F4.3°C 46.6°F8.1°C
Winds 4.6 mph S7.4 kmh S 5.8 mph SE9.3 kmh SE - 1.2 mph 1.9 kmh
Wind Gusts 5.8 mph9.3 kmh 15.0 mph24.1 kmh - -
Humidity 47% 100% 47% 81%
Pressure 30.06 in1017.9 mb 30.07 in1018.3 mb 29.95 in1014.2 mb -
Hour Temp Dew Point Humidity Winds Wind Gusts Pressure Precip Precip Rate Daily Precip Total
12:52 PM 69.8°F21.0°C 48.7°F9.3°C 47% 4.6 mph S7.4 kmh S 5.8 mph9.3 kmh 30.06 in1017.9 mb - 0.00 in0.0 mm 0.00 in0.0 mm
12:42 PM 69.1°F20.6°C 49.7°F9.8°C 50% 3.5 mph SSE5.6 kmh SSE 9.2 mph14.8 kmh 30.06 in1017.9 mb - 0.00 in0.0 mm 0.00 in0.0 mm
12:32 PM 69.1°F20.6°C 49.7°F9.8°C 50% 5.8 mph SSE9.3 kmh SSE 15.0 mph24.1 kmh 30.06 in1017.9 mb - 0.00 in0.0 mm 0.00 in0.0 mm
12:22 PM 68.6°F20.3°C 51.3°F10.7°C 54% 2.3 mph SE3.7 kmh SE 5.8 mph9.3 kmh 30.07 in1018.3 mb - 0.00 in0.0 mm 0.00 in0.0 mm
12:12 PM 67.6°F19.8°C 50.4°F10.2°C 54% 3.5 mph SSE5.6 kmh SSE 6.9 mph11.1 kmh 30.07 in1018.3 mb - 0.00 in0.0 mm 0.00 in0.0 mm
12:02 PM 67.5°F19.7°C 50.2°F10.1°C 54% 2.3 mph SSE3.7 kmh SSE 4.6 mph7.4 kmh 30.07 in1018.3 mb - 0.00 in0.0 mm 0.00 in0.0 mm
11:52 AM 67.8°F19.9°C 50.5°F10.3°C 54% 5.8 mph SE9.3 kmh SE 9.2 mph14.8 kmh 30.06 in1017.9 mb - 0.00 in0.0 mm 0.00 in0.0 mm
11:42 AM 66.9°F19.4°C 50.2°F10.1°C 55% 2.3 mph E3.7 kmh E 8.1 mph13.0 kmh 30.07 in1018.3 mb - 0.00 in0.0 mm 0.00 in0.0 mm
11:32 AM 66.5°F19.2°C 50.8°F10.4°C 57% 3.5 mph SSE5.6 kmh SSE 4.6 mph7.4 kmh 30.07 in1018.3 mb - 0.00 in0.0 mm 0.00 in0.0 mm
11:22 AM 65.8°F18.8°C 51.5°F10.8°C 60% 3.5 mph S5.6 kmh S 6.9 mph11.1 kmh 30.06 in1017.9 mb - 0.00 in0.0 mm 0.00 in0.0 mm
11:12 AM 65.1°F18.4°C 50.9°F10.5°C 60% 4.6 mph S7.4 kmh S 10.4 mph16.7 kmh 30.06 in1017.9 mb - 0.00 in0.0 mm 0.00 in0.0 mm
11:02 AM 64.5°F18.1°C 50.3°F10.2°C 60% 4.6 mph SE7.4 kmh SE 12.7 mph20.4 kmh 30.06 in1017.9 mb - 0.00 in0.0 mm 0.00 in0.0 mm
10:52 AM 63.7°F17.6°C 50.0°F10.0°C 61% 2.3 mph S3.7 kmh S 8.1 mph13.0 kmh 30.06 in1017.9 mb - 0.00 in0.0 mm 0.00 in0.0 mm
10:42 AM 62.8°F17.1°C 50.4°F10.2°C 64% 2.3 mph S3.7 kmh S 9.2 mph14.8 kmh 30.05 in1017.6 mb - 0.00 in0.0 mm 0.00 in0.0 mm
10:32 AM 62.4°F16.9°C 49.6°F9.8°C 63% 3.5 mph SSE5.6 kmh SSE 10.4 mph16.7 kmh 30.05 in1017.6 mb - 0.00 in0.0 mm 0.00 in0.0 mm
10:22 AM 61.5°F16.4°C 50.4°F10.2°C 67% 1.2 mph SSW1.9 kmh SSW 6.9 mph11.1 kmh 30.05 in1017.6 mb - 0.00 in0.0 mm 0.00 in0.0 mm
10:12 AM 59.8°F15.4°C 50.0°F10.0°C 70% 3.5 mph SE5.6 kmh SE 4.6 mph7.4 kmh 30.05 in1017.6 mb - 0.00 in0.0 mm 0.00 in0.0 mm
10:02 AM 58.6°F14.8°C 50.4°F10.2°C 74% 2.3 mph SSW3.7 kmh SSW 9.2 mph14.8 kmh 30.05 in1017.6 mb - 0.00 in0.0 mm 0.00 in0.0 mm
09:52 AM 57.6°F14.2°C 50.1°F10.1°C 76% 1.2 mph SE1.9 kmh SE 3.5 mph5.6 kmh 30.05 in1017.6 mb - 0.00 in0.0 mm 0.00 in0.0 mm
09:42 AM 56.6°F13.7°C 50.2°F10.1°C 79% 2.3 mph SSE3.7 kmh SSE 8.1 mph13.0 kmh 30.05 in1017.6 mb - 0.00 in0.0 mm 0.00 in0.0 mm
09:32 AM 55.5°F13.1°C 50.1°F10.1°C 82% 1.2 mph SE1.9 kmh SE 4.6 mph7.4 kmh 30.06 in1017.9 mb - 0.00 in0.0 mm 0.00 in0.0 mm
09:22 AM 54.2°F12.3°C 50.1°F10.1°C 86% 2.3 mph S3.7 kmh S 5.8 mph9.3 kmh 30.05 in1017.6 mb - 0.00 in0.0 mm 0.00 in0.0 mm
09:12 AM 53.0°F11.7°C 50.2°F10.1°C 90% 1.2 mph SE1.9 kmh SE 4.6 mph7.4 kmh 30.05 in1017.6 mb - 0.00 in0.0 mm 0.00 in0.0 mm
09:02 AM 52.0°F11.1°C 50.0°F10.0°C 93% 1.2 mph SE1.9 kmh SE 3.5 mph5.6 kmh 30.05 in1017.6 mb - 0.00 in0.0 mm 0.00 in0.0 mm
08:52 AM 51.1°F10.6°C 50.0°F10.0°C 96% Calm Calm -- 30.05 in1017.6 mb - 0.00 in0.0 mm 0.00 in0.0 mm
08:42 AM 50.4°F10.2°C 49.6°F9.8°C 97% 2.3 mph S3.7 kmh S 4.6 mph7.4 kmh 30.05 in1017.6 mb - 0.00 in0.0 mm 0.00 in0.0 mm
08:32 AM 49.6°F9.8°C 49.3°F9.6°C 99% Calm Calm 2.3 mph3.7 kmh 30.05 in1017.6 mb - 0.00 in0.0 mm 0.00 in0.0 mm
08:22 AM 48.9°F9.4°C 48.9°F9.4°C 100% 1.2 mph S1.9 kmh S 3.5 mph5.6 kmh 30.05 in1017.6 mb - 0.00 in0.0 mm 0.00 in0.0 mm
08:12 AM 48.2°F9.0°C 48.2°F9.0°C 100% 1.2 mph S1.9 kmh S 3.5 mph5.6 kmh 30.05 in1017.6 mb - 0.00 in0.0 mm 0.00 in0.0 mm
08:02 AM 47.6°F8.7°C 47.6°F8.7°C 100% 2.3 mph S3.7 kmh S 4.6 mph7.4 kmh 30.04 in1017.3 mb - 0.00 in0.0 mm 0.00 in0.0 mm
07:52 AM 47.0°F8.3°C 47.0°F8.3°C 100% 2.3 mph S3.7 kmh S 3.5 mph5.6 kmh 30.04 in1017.3 mb - 0.00 in0.0 mm 0.00 in0.0 mm
07:42 AM 46.7°F8.2°C 46.7°F8.2°C 100% 1.2 mph S1.9 kmh S 2.3 mph3.7 kmh 30.04 in1017.3 mb - 0.00 in0.0 mm 0.00 in0.0 mm
07:32 AM 46.5°F8.1°C 46.5°F8.1°C 100% Calm Calm 3.5 mph5.6 kmh 30.03 in1016.9 mb - 0.00 in0.0 mm 0.00 in0.0 mm
07:22 AM 46.4°F8.0°C 46.4°F8.0°C 100% Calm Calm -- 30.03 in1016.9 mb - 0.00 in0.0 mm 0.00 in0.0 mm
07:12 AM 46.2°F7.9°C 46.2°F7.9°C 100% Calm Calm 1.2 mph1.9 kmh 30.03 in1016.9 mb - 0.00 in0.0 mm 0.00 in0.0 mm
07:02 AM 46.2°F7.9°C 46.2°F7.9°C 100% Calm Calm 1.2 mph1.9 kmh 30.02 in1016.6 mb - 0.00 in0.0 mm 0.00 in0.0 mm
06:52 AM 46.1°F7.8°C 45.8°F7.7°C 99% 1.2 mph S1.9 kmh S 2.3 mph3.7 kmh 30.02 in1016.6 mb - 0.00 in0.0 mm 0.00 in0.0 mm
06:42 AM 46.1°F7.8°C 45.8°F7.7°C 99% 1.2 mph S1.9 kmh S 3.5 mph5.6 kmh 30.02 in1016.6 mb - 0.00 in0.0 mm 0.00 in0.0 mm
06:32 AM 46.2°F7.9°C 45.9°F7.7°C 99% Calm Calm 1.2 mph1.9 kmh 30.02 in1016.6 mb - 0.00 in0.0 mm 0.00 in0.0 mm
06:22 AM 46.4°F8.0°C 46.1°F7.8°C 99% 1.2 mph S1.9 kmh S 1.2 mph1.9 kmh 30.02 in1016.6 mb - 0.00 in0.0 mm 0.00 in0.0 mm
06:12 AM 46.5°F8.1°C 46.2°F7.9°C 99% Calm Calm -- 30.02 in1016.6 mb - 0.00 in0.0 mm 0.00 in0.0 mm
06:02 AM 46.7°F8.2°C 46.4°F8.0°C 99% Calm Calm 1.2 mph1.9 kmh 30.02 in1016.6 mb - 0.00 in0.0 mm 0.00 in0.0 mm
05:52 AM 46.8°F8.2°C 46.5°F8.1°C 99% Calm Calm -- 30.01 in1016.3 mb - 0.00 in0.0 mm 0.00 in0.0 mm
05:42 AM 47.0°F8.3°C 46.7°F8.2°C 99% Calm Calm 1.2 mph1.9 kmh 30.01 in1016.3 mb - 0.00 in0.0 mm 0.00 in0.0 mm
05:32 AM 47.0°F8.3°C 46.7°F8.2°C 99% Calm Calm 2.3 mph3.7 kmh 30.01 in1016.3 mb - 0.00 in0.0 mm 0.00 in0.0 mm
05:22 AM 47.0°F8.3°C 46.5°F8.1°C 98% Calm Calm -- 30.00 in1015.9 mb - 0.00 in0.0 mm 0.00 in0.0 mm
05:12 AM 47.0°F8.3°C 46.5°F8.1°C 98% Calm Calm 2.3 mph3.7 kmh 30.00 in1015.9 mb - 0.00 in0.0 mm 0.00 in0.0 mm
05:02 AM 47.0°F8.3°C 46.2°F7.9°C 97% Calm Calm -- 30.00 in1015.9 mb - 0.00 in0.0 mm 0.00 in0.0 mm
04:52 AM 47.1°F8.4°C 46.3°F7.9°C 97% Calm Calm 2.3 mph3.7 kmh 30.00 in1015.9 mb - 0.00 in0.0 mm 0.00 in0.0 mm
04:42 AM 47.1°F8.4°C 46.0°F7.8°C 96% 1.2 mph S1.9 kmh S 2.3 mph3.7 kmh 29.99 in1015.6 mb - 0.00 in0.0 mm 0.00 in0.0 mm
04:32 AM 47.3°F8.5°C 46.0°F7.8°C 95% Calm Calm -- 29.99 in1015.6 mb - 0.00 in0.0 mm 0.00 in0.0 mm
04:22 AM 47.6°F8.7°C 45.9°F7.7°C 94% Calm Calm -- 29.98 in1015.2 mb - 0.00 in0.0 mm 0.00 in0.0 mm
04:12 AM 47.6°F8.7°C 45.7°F7.6°C 93% Calm Calm 1.2 mph1.9 kmh 29.98 in1015.2 mb - 0.00 in0.0 mm 0.00 in0.0 mm
04:02 AM 47.7°F8.7°C 45.5°F7.5°C 92% Calm Calm -- 29.98 in1015.2 mb - 0.00 in0.0 mm 0.00 in0.0 mm
03:52 AM 48.1°F8.9°C 45.3°F7.4°C 90% Calm Calm -- 29.98 in1015.2 mb - 0.00 in0.0 mm 0.00 in0.0 mm
03:32 AM 49.1°F9.5°C 45.1°F7.3°C 86% 1.2 mph S1.9 kmh S 1.2 mph1.9 kmh 29.98 in1015.2 mb - 0.00 in0.0 mm 0.00 in0.0 mm
03:22 AM 49.4°F9.7°C 44.8°F7.1°C 84% 1.2 mph S1.9 kmh S 2.3 mph3.7 kmh 29.98 in1015.2 mb - 0.00 in0.0 mm 0.00 in0.0 mm
03:12 AM 49.6°F9.8°C 44.6°F7.0°C 83% Calm Calm 1.2 mph1.9 kmh 29.98 in1015.2 mb - 0.00 in0.0 mm 0.00 in0.0 mm
03:02 AM 49.8°F9.9°C 44.5°F6.9°C 82% Calm Calm -- 29.98 in1015.2 mb - 0.00 in0.0 mm 0.00 in0.0 mm
02:52 AM 49.9°F9.9°C 44.3°F6.8°C 81% Calm Calm -- 29.98 in1015.2 mb - 0.00 in0.0 mm 0.00 in0.0 mm
02:42 AM 49.8°F9.9°C 43.9°F6.6°C 80% Calm Calm -- 29.97 in1014.9 mb - 0.00 in0.0 mm 0.00 in0.0 mm
02:32 AM 49.5°F9.7°C 43.3°F6.3°C 79% Calm Calm -- 29.97 in1014.9 mb - 0.00 in0.0 mm 0.00 in0.0 mm
02:22 AM 49.5°F9.7°C 43.3°F6.3°C 79% Calm Calm -- 29.96 in1014.6 mb - 0.00 in0.0 mm 0.00 in0.0 mm
02:12 AM 49.5°F9.7°C 42.9°F6.1°C 78% Calm Calm -- 29.96 in1014.6 mb - 0.00 in0.0 mm 0.00 in0.0 mm
02:02 AM 49.6°F9.8°C 43.0°F6.1°C 78% Calm Calm -- 29.96 in1014.6 mb - 0.00 in0.0 mm 0.00 in0.0 mm
01:52 AM 49.8°F9.9°C 42.9°F6.1°C 77% Calm Calm -- 29.96 in1014.6 mb - 0.00 in0.0 mm 0.00 in0.0 mm
01:42 AM 49.9°F9.9°C 41.9°F5.5°C 74% Calm Calm -- 29.96 in1014.6 mb - 0.00 in0.0 mm 0.00 in0.0 mm
01:32 AM 50.2°F10.1°C 41.9°F5.5°C 73% Calm Calm -- 29.96 in1014.6 mb - 0.00 in0.0 mm 0.00 in0.0 mm
01:22 AM 50.6°F10.3°C 41.6°F5.3°C 71% 1.2 mph S1.9 kmh S 2.3 mph3.7 kmh 29.95 in1014.2 mb - 0.00 in0.0 mm 0.00 in0.0 mm
01:12 AM 50.8°F10.4°C 41.0°F5.0°C 69% Calm Calm 1.2 mph1.9 kmh 29.95 in1014.2 mb - 0.00 in0.0 mm 0.00 in0.0 mm
01:02 AM 51.0°F10.6°C 40.8°F4.9°C 68% 1.2 mph S1.9 kmh S 3.5 mph5.6 kmh 29.95 in1014.2 mb - 0.00 in0.0 mm 0.00 in0.0 mm
12:52 AM 51.0°F10.6°C 40.4°F4.7°C 67% Calm Calm -- 29.95 in1014.2 mb - 0.00 in0.0 mm 0.00 in0.0 mm
12:42 AM 50.8°F10.4°C 39.8°F4.3°C 66% Calm Calm -- 29.95 in1014.2 mb - 0.00 in0.0 mm 0.00 in0.0 mm
12:32 AM 50.8°F10.4°C 40.2°F4.6°C 67% Calm Calm -- 29.95 in1014.2 mb - 0.00 in0.0 mm 0.00 in0.0 mm
12:22 AM 50.8°F10.4°C 40.2°F4.6°C 67% Calm Calm -- 29.95 in1014.2 mb - 0.00 in0.0 mm 0.00 in0.0 mm
12:12 AM 50.8°F10.4°C 40.6°F4.8°C 68% Calm Calm -- 29.95 in1014.2 mb - 0.00 in0.0 mm 0.00 in0.0 mm
12:02 AM 50.8°F10.4°C 40.6°F4.8°C 68% Calm Calm -- 29.95 in1014.2 mb - 0.00 in0.0 mm 0.00 in0.0 mm